sensor_id;sensor_type;location;lat;lon;timestamp;pressure;altitude;pressure_sealevel;temperature;humidity
59289;BME280;45056;47.602;9.886;2023-03-14T00:01:11;91678.81;;;11.78;65.41
59289;BME280;45056;47.602;9.886;2023-03-14T00:03:43;91683.59;;;11.62;65.81
59289;BME280;45056;47.602;9.886;2023-03-14T00:06:13;91688.88;;;11.45;65.06
59289;BME280;45056;47.602;9.886;2023-03-14T00:08:43;91700.22;;;11.23;65.98
59289;BME280;45056;47.602;9.886;2023-03-14T00:11:13;91701.03;;;11.08;65.36
59289;BME280;45056;47.602;9.886;2023-03-14T00:13:47;91684.88;;;10.84;65.80
59289;BME280;45056;47.602;9.886;2023-03-14T00:16:16;91700.47;;;10.68;66.30
59289;BME280;45056;47.602;9.886;2023-03-14T00:18:46;91692.63;;;10.56;66.85
59289;BME280;45056;47.602;9.886;2023-03-14T00:21:14;91684.59;;;10.46;66.99
59289;BME280;45056;47.602;9.886;2023-03-14T00:23:43;91692.81;;;10.37;66.70
59289;BME280;45056;47.602;9.886;2023-03-14T00:26:13;91695.63;;;10.28;66.70
59289;BME280;45056;47.602;9.886;2023-03-14T00:28:42;91694.50;;;10.19;66.89
59289;BME280;45056;47.602;9.886;2023-03-14T00:31:13;91697.34;;;10.10;67.04
59289;BME280;45056;47.602;9.886;2023-03-14T00:33:45;91702.59;;;9.99;66.85
59289;BME280;45056;47.602;9.886;2023-03-14T00:36:16;91707.16;;;9.92;66.62
59289;BME280;45056;47.602;9.886;2023-03-14T00:38:47;91716.50;;;9.76;67.42
59289;BME280;45056;47.602;9.886;2023-03-14T00:41:18;91719.75;;;9.65;67.65
59289;BME280;45056;47.602;9.886;2023-03-14T00:43:49;91718.16;;;9.59;67.87
59289;BME280;45056;47.602;9.886;2023-03-14T00:46:18;91720.47;;;9.51;67.66
59289;BME280;45056;47.602;9.886;2023-03-14T00:48:47;91713.72;;;9.46;67.98
59289;BME280;45056;47.602;9.886;2023-03-14T00:51:15;91725.75;;;9.30;68.47
59289;BME280;45056;47.602;9.886;2023-03-14T00:53:44;91727.31;;;9.22;68.57
59289;BME280;45056;47.602;9.886;2023-03-14T00:56:13;91734.59;;;9.16;68.74
59289;BME280;45056;47.602;9.886;2023-03-14T00:58:41;91720.75;;;9.14;68.89
59289;BME280;45056;47.602;9.886;2023-03-14T01:01:13;91731.59;;;9.14;68.59
59289;BME280;45056;47.602;9.886;2023-03-14T01:03:42;91732.84;;;9.03;68.74
59289;BME280;45056;47.602;9.886;2023-03-14T01:06:14;91733.38;;;8.92;69.00
59289;BME280;45056;47.602;9.886;2023-03-14T01:08:44;91723.44;;;8.89;69.13
59289;BME280;45056;47.602;9.886;2023-03-14T01:11:15;91732.78;;;8.88;69.17
59289;BME280;45056;47.602;9.886;2023-03-14T01:13:46;91738.66;;;8.87;69.32
59289;BME280;45056;47.602;9.886;2023-03-14T01:16:15;91735.97;;;8.87;69.44
59289;BME280;45056;47.602;9.886;2023-03-14T01:18:45;91715.75;;;8.88;68.92
59289;BME280;45056;47.602;9.886;2023-03-14T01:21:18;91710.34;;;8.88;69.13
59289;BME280;45056;47.602;9.886;2023-03-14T01:23:48;91709.00;;;8.83;68.73
59289;BME280;45056;47.602;9.886;2023-03-14T01:26:20;91700.13;;;8.83;68.58
59289;BME280;45056;47.602;9.886;2023-03-14T01:28:52;91693.47;;;8.84;68.62
59289;BME280;45056;47.602;9.886;2023-03-14T01:31:21;91689.84;;;8.87;68.57
59289;BME280;45056;47.602;9.886;2023-03-14T01:33:50;91670.38;;;8.88;68.41
59289;BME280;45056;47.602;9.886;2023-03-14T01:36:20;91653.38;;;8.88;68.10
59289;BME280;45056;47.602;9.886;2023-03-14T01:38:48;91641.59;;;8.91;68.05
59289;BME280;45056;47.602;9.886;2023-03-14T01:41:19;91604.19;;;8.95;67.99
59289;BME280;45056;47.602;9.886;2023-03-14T01:43:49;91607.94;;;8.98;68.05
59289;BME280;45056;47.602;9.886;2023-03-14T01:46:33;91572.69;;;8.98;67.98
59289;BME280;45056;47.602;9.886;2023-03-14T01:49:13;91562.47;;;8.92;67.71
59289;BME280;45056;47.602;9.886;2023-03-14T01:51:52;91562.81;;;8.85;67.99
59289;BME280;45056;47.602;9.886;2023-03-14T01:54:28;91565.53;;;8.85;68.59
59289;BME280;45056;47.602;9.886;2023-03-14T01:57:06;91558.88;;;8.86;68.22
59289;BME280;45056;47.602;9.886;2023-03-14T01:59:41;91551.50;;;8.87;68.13
59289;BME280;45056;47.602;9.886;2023-03-14T02:02:15;91541.88;;;8.86;67.71
59289;BME280;45056;47.602;9.886;2023-03-14T02:04:44;91535.69;;;8.85;67.86
59289;BME280;45056;47.602;9.886;2023-03-14T02:07:17;91545.16;;;8.90;67.89
59289;BME280;45056;47.602;9.886;2023-03-14T02:09:48;91533.66;;;8.95;68.00
59289;BME280;45056;47.602;9.886;2023-03-14T02:12:20;91538.63;;;8.97;68.01
59289;BME280;45056;47.602;9.886;2023-03-14T02:14:49;91529.72;;;8.96;68.01
59289;BME280;45056;47.602;9.886;2023-03-14T02:17:19;91527.03;;;8.96;68.05
59289;BME280;45056;47.602;9.886;2023-03-14T02:20:00;91517.66;;;8.97;68.10
59289;BME280;45056;47.602;9.886;2023-03-14T02:22:42;91523.38;;;8.99;67.86
59289;BME280;45056;47.602;9.886;2023-03-14T02:25:18;91532.00;;;8.98;67.82
59289;BME280;45056;47.602;9.886;2023-03-14T02:27:54;91512.72;;;8.95;68.07
59289;BME280;45056;47.602;9.886;2023-03-14T02:30:25;91523.09;;;8.97;68.03
59289;BME280;45056;47.602;9.886;2023-03-14T02:32:58;91547.50;;;8.97;68.14
59289;BME280;45056;47.602;9.886;2023-03-14T02:35:35;91527.59;;;9.00;67.44
59289;BME280;45056;47.602;9.886;2023-03-14T02:38:15;91535.84;;;9.06;66.77
59289;BME280;45056;47.602;9.886;2023-03-14T02:40:50;91533.69;;;9.10;66.29
59289;BME280;45056;47.602;9.886;2023-03-14T02:43:20;91538.66;;;9.12;65.56
59289;BME280;45056;47.602;9.886;2023-03-14T02:45:51;91525.38;;;9.14;65.29
59289;BME280;45056;47.602;9.886;2023-03-14T02:48:23;91526.88;;;9.15;64.74
59289;BME280;45056;47.602;9.886;2023-03-14T02:50:56;91529.56;;;9.15;64.78
59289;BME280;45056;47.602;9.886;2023-03-14T02:53:29;91521.44;;;9.15;64.75
59289;BME280;45056;47.602;9.886;2023-03-14T02:55:59;91513.31;;;9.15;64.76
59289;BME280;45056;47.602;9.886;2023-03-14T02:58:30;91513.59;;;9.17;64.85
59289;BME280;45056;47.602;9.886;2023-03-14T03:00:58;91508.16;;;9.17;64.83
59289;BME280;45056;47.602;9.886;2023-03-14T03:03:26;91496.81;;;9.18;64.87
59289;BME280;45056;47.602;9.886;2023-03-14T03:05:55;91496.53;;;9.16;64.95
59289;BME280;45056;47.602;9.886;2023-03-14T03:08:25;91495.03;;;9.15;64.91
59289;BME280;45056;47.602;9.886;2023-03-14T03:10:56;91478.75;;;9.15;64.84
59289;BME280;45056;47.602;9.886;2023-03-14T03:13:25;91490.09;;;9.14;64.94
59289;BME280;45056;47.602;9.886;2023-03-14T03:15:55;91486.91;;;9.15;64.71
59289;BME280;45056;47.602;9.886;2023-03-14T03:18:23;91465.94;;;9.16;64.58
59289;BME280;45056;47.602;9.886;2023-03-14T03:20:51;91465.94;;;9.16;64.44
59289;BME280;45056;47.602;9.886;2023-03-14T03:23:19;91464.47;;;9.15;64.38
59289;BME280;45056;47.602;9.886;2023-03-14T03:25:51;91477.53;;;9.16;64.37
59289;BME280;45056;47.602;9.886;2023-03-14T03:28:19;91474.09;;;9.16;64.19
59289;BME280;45056;47.602;9.886;2023-03-14T03:30:47;91475.59;;;9.17;64.42
59289;BME280;45056;47.602;9.886;2023-03-14T03:33:16;91481.28;;;9.19;64.28
59289;BME280;45056;47.602;9.886;2023-03-14T03:35:46;91485.78;;;9.22;64.12
59289;BME280;45056;47.602;9.886;2023-03-14T03:38:16;91492.25;;;9.24;64.38
59289;BME280;45056;47.602;9.886;2023-03-14T03:40:46;91491.31;;;9.28;64.57
59289;BME280;45056;47.602;9.886;2023-03-14T03:43:14;91487.66;;;9.31;64.50
59289;BME280;45056;47.602;9.886;2023-03-14T03:45:42;91487.19;;;9.32;64.51
59289;BME280;45056;47.602;9.886;2023-03-14T03:48:10;91494.09;;;9.33;64.35
59289;BME280;45056;47.602;9.886;2023-03-14T03:50:45;91488.66;;;9.33;64.46
59289;BME280;45056;47.602;9.886;2023-03-14T03:53:13;91483.25;;;9.33;64.79
59289;BME280;45056;47.602;9.886;2023-03-14T03:55:41;91484.75;;;9.34;64.98
59289;BME280;45056;47.602;9.886;2023-03-14T03:58:09;91481.56;;;9.36;64.93
59289;BME280;45056;47.602;9.886;2023-03-14T04:00:37;91479.63;;;9.36;65.02
59289;BME280;45056;47.602;9.886;2023-03-14T04:03:06;91480.06;;;9.35;65.03
59289;BME280;45056;47.602;9.886;2023-03-14T04:05:35;91478.56;;;9.34;65.01
59289;BME280;45056;47.602;9.886;2023-03-14T04:08:05;91469.41;;;9.31;65.17
59289;BME280;45056;47.602;9.886;2023-03-14T04:10:34;91459.03;;;9.30;65.44
59289;BME280;45056;47.602;9.886;2023-03-14T04:13:03;91454.81;;;9.29;65.50
59289;BME280;45056;47.602;9.886;2023-03-14T04:15:31;91452.09;;;9.29;65.62
59289;BME280;45056;47.602;9.886;2023-03-14T04:17:59;91450.13;;;9.29;65.60
59289;BME280;45056;47.602;9.886;2023-03-14T04:20:27;91440.47;;;9.28;65.55
59289;BME280;45056;47.602;9.886;2023-03-14T04:22:55;91433.84;;;9.29;65.27
59289;BME280;45056;47.602;9.886;2023-03-14T04:25:24;91433.84;;;9.29;65.02
59289;BME280;45056;47.602;9.886;2023-03-14T04:27:52;91433.38;;;9.31;64.71
59289;BME280;45056;47.602;9.886;2023-03-14T04:30:20;91433.84;;;9.29;64.38
59289;BME280;45056;47.602;9.886;2023-03-14T04:32:48;91433.38;;;9.31;64.39
59289;BME280;45056;47.602;9.886;2023-03-14T04:35:16;91436.81;;;9.31;64.34
59289;BME280;45056;47.602;9.886;2023-03-14T04:37:44;91431.69;;;9.33;64.16
59289;BME280;45056;47.602;9.886;2023-03-14T04:40:15;91425.03;;;9.34;64.04
59289;BME280;45056;47.602;9.886;2023-03-14T04:42:45;91429.22;;;9.35;64.00
59289;BME280;45056;47.602;9.886;2023-03-14T04:45:13;91426.53;;;9.35;63.88
59289;BME280;45056;47.602;9.886;2023-03-14T04:47:41;91436.19;;;9.36;63.76
59289;BME280;45056;47.602;9.886;2023-03-14T04:50:10;91428.31;;;9.38;63.81
59289;BME280;45056;47.602;9.886;2023-03-14T04:52:38;91426.63;;;9.41;63.63
59289;BME280;45056;47.602;9.886;2023-03-14T04:55:07;91424.66;;;9.42;63.43
59289;BME280;45056;47.602;9.886;2023-03-14T04:57:35;91419.69;;;9.40;63.20
59289;BME280;45056;47.602;9.886;2023-03-14T05:00:05;91404.16;;;9.41;62.99
59289;BME280;45056;47.602;9.886;2023-03-14T05:02:35;91394.53;;;9.40;62.66
59289;BME280;45056;47.602;9.886;2023-03-14T05:05:04;91398.91;;;9.37;62.76
59289;BME280;45056;47.602;9.886;2023-03-14T05:07:33;91385.53;;;9.33;62.85
59289;BME280;45056;47.602;9.886;2023-03-14T05:10:01;91377.13;;;9.31;62.84
59289;BME280;45056;47.602;9.886;2023-03-14T05:12:29;91374.88;;;9.30;62.98
59289;BME280;45056;47.602;9.886;2023-03-14T05:14:57;91371.41;;;9.29;63.08
59289;BME280;45056;47.602;9.886;2023-03-14T05:17:26;91372.16;;;9.30;63.06
59289;BME280;45056;47.602;9.886;2023-03-14T05:19:54;91369.19;;;9.28;63.19
59289;BME280;45056;47.602;9.886;2023-03-14T05:22:22;91360.56;;;9.29;63.43
59289;BME280;45056;47.602;9.886;2023-03-14T05:24:51;91361.78;;;9.28;63.06
59289;BME280;45056;47.602;9.886;2023-03-14T05:27:20;91358.59;;;9.30;62.88
59289;BME280;45056;47.602;9.886;2023-03-14T05:29:48;91353.34;;;9.26;63.07
59289;BME280;45056;47.602;9.886;2023-03-14T05:32:16;91346.44;;;9.25;63.50
59289;BME280;45056;47.602;9.886;2023-03-14T05:34:46;91349.63;;;9.23;63.78
59289;BME280;45056;47.602;9.886;2023-03-14T05:37:14;91337.75;;;9.21;63.92
59289;BME280;45056;47.602;9.886;2023-03-14T05:39:42;91335.97;;;9.18;64.13
59289;BME280;45056;47.602;9.886;2023-03-14T05:42:10;91334.50;;;9.17;64.13
59289;BME280;45056;47.602;9.886;2023-03-14T05:44:38;91329.06;;;9.17;64.12
59289;BME280;45056;47.602;9.886;2023-03-14T05:47:06;91311.06;;;9.19;63.59
59289;BME280;45056;47.602;9.886;2023-03-14T05:49:34;91304.91;;;9.19;63.39
59289;BME280;45056;47.602;9.886;2023-03-14T05:52:04;91307.63;;;9.19;63.19
59289;BME280;45056;47.602;9.886;2023-03-14T05:54:32;91298.00;;;9.18;62.89
59289;BME280;45056;47.602;9.886;2023-03-14T05:57:00;91300.72;;;9.18;62.96
59289;BME280;45056;47.602;9.886;2023-03-14T05:59:28;91298.25;;;9.20;63.24
59289;BME280;45056;47.602;9.886;2023-03-14T06:01:56;91290.13;;;9.20;63.33
59289;BME280;45056;47.602;9.886;2023-03-14T06:04:24;91289.38;;;9.19;63.95
59289;BME280;45056;47.602;9.886;2023-03-14T06:06:53;91285.66;;;9.17;64.42
59289;BME280;45056;47.602;9.886;2023-03-14T06:09:22;91293.97;;;9.13;64.61
59289;BME280;45056;47.602;9.886;2023-03-14T06:11:50;91286.50;;;9.08;64.53
59289;BME280;45056;47.602;9.886;2023-03-14T06:14:18;91287.91;;;9.03;64.59
59289;BME280;45056;47.602;9.886;2023-03-14T06:16:46;91289.63;;;9.01;64.58
59289;BME280;45056;47.602;9.886;2023-03-14T06:19:15;91284.94;;;9.01;64.61
59289;BME280;45056;47.602;9.886;2023-03-14T06:21:43;91294.09;;;9.04;64.38
59289;BME280;45056;47.602;9.886;2023-03-14T06:24:11;91292.88;;;9.05;63.91
59289;BME280;45056;47.602;9.886;2023-03-14T06:26:41;91287.91;;;9.03;63.84
59289;BME280;45056;47.602;9.886;2023-03-14T06:29:09;91294.84;;;9.04;64.04
59289;BME280;45056;47.602;9.886;2023-03-14T06:31:37;91293.06;;;9.01;64.16
59289;BME280;45056;47.602;9.886;2023-03-14T06:34:05;91299.72;;;9.00;64.48
59289;BME280;45056;47.602;9.886;2023-03-14T06:36:33;91292.78;;;8.99;64.38
59289;BME280;45056;47.602;9.886;2023-03-14T06:39:01;91294.78;;;8.99;64.57
59289;BME280;45056;47.602;9.886;2023-03-14T06:41:29;91293.81;;;9.02;64.67
59289;BME280;45056;47.602;9.886;2023-03-14T06:43:58;91277.06;;;9.03;64.51
59289;BME280;45056;47.602;9.886;2023-03-14T06:46:27;91278.56;;;9.04;64.44
59289;BME280;45056;47.602;9.886;2023-03-14T06:48:55;91261.09;;;9.05;64.30
59289;BME280;45056;47.602;9.886;2023-03-14T06:51:23;91263.50;;;9.03;64.28
59289;BME280;45056;47.602;9.886;2023-03-14T06:53:51;91254.63;;;9.03;64.29
59289;BME280;45056;47.602;9.886;2023-03-14T06:56:19;91257.34;;;9.03;64.20
59289;BME280;45056;47.602;9.886;2023-03-14T06:58:47;91252.94;;;9.05;63.98
59289;BME280;45056;47.602;9.886;2023-03-14T07:01:22;91259.91;;;9.12;63.36
59289;BME280;45056;47.602;9.886;2023-03-14T07:03:52;91252.31;;;9.16;63.49
59289;BME280;45056;47.602;9.886;2023-03-14T07:06:21;91250.44;;;9.22;63.43
59289;BME280;45056;47.602;9.886;2023-03-14T07:08:49;91262.59;;;9.27;63.01
59289;BME280;45056;47.602;9.886;2023-03-14T07:11:17;91262.41;;;9.31;62.65
59289;BME280;45056;47.602;9.886;2023-03-14T07:13:45;91267.13;;;9.36;61.95
59289;BME280;45056;47.602;9.886;2023-03-14T07:16:14;91267.69;;;9.40;61.23
59289;BME280;45056;47.602;9.886;2023-03-14T07:18:43;91273.19;;;9.46;60.43
59289;BME280;45056;47.602;9.886;2023-03-14T07:21:11;91274.94;;;9.49;60.00
59289;BME280;45056;47.602;9.886;2023-03-14T07:23:39;91282.13;;;9.52;59.96
59289;BME280;45056;47.602;9.886;2023-03-14T07:26:08;91282.41;;;9.54;60.11
59289;BME280;45056;47.602;9.886;2023-03-14T07:28:36;91288.88;;;9.57;60.14
59289;BME280;45056;47.602;9.886;2023-03-14T07:31:04;91283.22;;;9.60;60.13
59289;BME280;45056;47.602;9.886;2023-03-14T07:33:32;91286.47;;;9.64;60.09
59289;BME280;45056;47.602;9.886;2023-03-14T07:36:03;91290.50;;;9.69;59.77
59289;BME280;45056;47.602;9.886;2023-03-14T07:38:31;91305.38;;;9.74;59.86
59289;BME280;45056;47.602;9.886;2023-03-14T07:40:59;91286.66;;;9.81;59.80
59289;BME280;45056;47.602;9.886;2023-03-14T07:43:28;91296.38;;;9.88;59.35
59289;BME280;45056;47.602;9.886;2023-03-14T07:45:56;91295.50;;;9.97;59.18
59289;BME280;45056;47.602;9.886;2023-03-14T07:48:24;91286.91;;;10.04;58.64
59289;BME280;45056;47.602;9.886;2023-03-14T07:50:54;91288.75;;;10.13;58.44
59289;BME280;45056;47.602;9.886;2023-03-14T07:53:25;91290.34;;;10.25;58.14
59289;BME280;45056;47.602;9.886;2023-03-14T07:55:54;91298.88;;;10.39;57.39
59289;BME280;45056;47.602;9.886;2023-03-14T07:58:22;91306.69;;;10.52;57.34
59289;BME280;45056;47.602;9.886;2023-03-14T08:00:51;91304.06;;;10.63;58.55
59289;BME280;45056;47.602;9.886;2023-03-14T08:03:20;91294.72;;;10.70;59.25
59289;BME280;45056;47.602;9.886;2023-03-14T08:05:49;91295.50;;;10.76;60.02
59289;BME280;45056;47.602;9.886;2023-03-14T08:08:18;91290.53;;;10.75;60.13
59289;BME280;45056;47.602;9.886;2023-03-14T08:10:47;91295.97;;;10.75;60.23
59289;BME280;45056;47.602;9.886;2023-03-14T08:13:15;91301.19;;;10.78;60.25
59289;BME280;45056;47.602;9.886;2023-03-14T08:15:47;91302.50;;;10.89;60.42
59289;BME280;45056;47.602;9.886;2023-03-14T08:18:17;91298.13;;;10.97;60.61
59289;BME280;45056;47.602;9.886;2023-03-14T08:20:45;91292.03;;;11.14;60.12
59289;BME280;45056;47.602;9.886;2023-03-14T08:23:13;91289.66;;;11.27;59.07
59289;BME280;45056;47.602;9.886;2023-03-14T08:25:41;91290.25;;;11.43;59.04
59289;BME280;45056;47.602;9.886;2023-03-14T08:28:11;91295.00;;;11.53;58.56
59289;BME280;45056;47.602;9.886;2023-03-14T08:30:39;91295.56;;;11.69;58.20
59289;BME280;45056;47.602;9.886;2023-03-14T08:33:07;91292.91;;;11.86;57.04
59289;BME280;45056;47.602;9.886;2023-03-14T08:35:35;91295.16;;;11.99;56.34
59289;BME280;45056;47.602;9.886;2023-03-14T08:38:05;91299.69;;;12.08;54.04
59289;BME280;45056;47.602;9.886;2023-03-14T08:40:33;91293.00;;;12.09;52.55
59289;BME280;45056;47.602;9.886;2023-03-14T08:43:01;91307.41;;;12.09;52.78
59289;BME280;45056;47.602;9.886;2023-03-14T08:45:30;91310.88;;;12.16;52.73
59289;BME280;45056;47.602;9.886;2023-03-14T08:47:58;91303.22;;;12.31;52.75
59289;BME280;45056;47.602;9.886;2023-03-14T08:50:27;91311.19;;;12.46;52.93
59289;BME280;45056;47.602;9.886;2023-03-14T08:52:55;91314.69;;;12.58;52.54
59289;BME280;45056;47.602;9.886;2023-03-14T08:55:27;91322.16;;;12.75;51.64
59289;BME280;45056;47.602;9.886;2023-03-14T08:57:56;91320.44;;;12.89;51.39
59289;BME280;45056;47.602;9.886;2023-03-14T09:00:24;91327.13;;;12.99;51.30
59289;BME280;45056;47.602;9.886;2023-03-14T09:02:53;91335.31;;;13.10;51.26
59289;BME280;45056;47.602;9.886;2023-03-14T09:05:21;91321.91;;;13.18;51.07
59289;BME280;45056;47.602;9.886;2023-03-14T09:07:49;91326.13;;;13.19;49.98
59289;BME280;45056;47.602;9.886;2023-03-14T09:10:17;91331.56;;;13.19;50.03
59289;BME280;45056;47.602;9.886;2023-03-14T09:12:46;91332.34;;;13.20;49.72
59289;BME280;45056;47.602;9.886;2023-03-14T09:15:14;91342.25;;;13.23;49.77
59289;BME280;45056;47.602;9.886;2023-03-14T09:17:42;91338.78;;;13.22;48.92
59289;BME280;45056;47.602;9.886;2023-03-14T09:20:12;91341.50;;;13.22;49.27
59289;BME280;45056;47.602;9.886;2023-03-14T09:22:40;91335.78;;;13.26;48.92
59289;BME280;45056;47.602;9.886;2023-03-14T09:25:09;91343.75;;;13.30;48.94
59289;BME280;45056;47.602;9.886;2023-03-14T09:27:38;91342.75;;;13.33;49.40
59289;BME280;45056;47.602;9.886;2023-03-14T09:30:07;91341.25;;;13.32;49.07
59289;BME280;45056;47.602;9.886;2023-03-14T09:32:37;91339.53;;;13.28;49.26
59289;BME280;45056;47.602;9.886;2023-03-14T09:35:05;91352.69;;;13.30;49.11
59289;BME280;45056;47.602;9.886;2023-03-14T09:37:35;91362.59;;;13.33;49.05
59289;BME280;45056;47.602;9.886;2023-03-14T09:40:04;91366.56;;;13.32;48.50
59289;BME280;45056;47.602;9.886;2023-03-14T09:42:38;91362.63;;;13.22;47.76
59289;BME280;45056;47.602;9.886;2023-03-14T09:45:13;91366.31;;;13.07;47.47
59289;BME280;45056;47.602;9.886;2023-03-14T09:47:47;91368.56;;;12.92;47.72
59289;BME280;45056;47.602;9.886;2023-03-14T09:50:15;91373.25;;;12.80;47.83
59289;BME280;45056;47.602;9.886;2023-03-14T09:52:49;91372.00;;;12.69;48.26
59289;BME280;45056;47.602;9.886;2023-03-14T09:55:23;91371.50;;;12.60;48.46
59289;BME280;45056;47.602;9.886;2023-03-14T09:57:58;91371.72;;;12.50;48.59
59289;BME280;45056;47.602;9.886;2023-03-14T10:00:31;91377.16;;;12.45;49.20
59289;BME280;45056;47.602;9.886;2023-03-14T10:03:21;91381.59;;;12.42;49.59
59289;BME280;45056;47.602;9.886;2023-03-14T10:05:54;91383.81;;;12.38;49.80
59289;BME280;45056;47.602;9.886;2023-03-14T10:08:25;91379.56;;;12.31;49.72
59289;BME280;45056;47.602;9.886;2023-03-14T10:10:54;91380.78;;;12.19;50.09
59289;BME280;45056;47.602;9.886;2023-03-14T10:13:24;91377.50;;;12.09;50.12
59289;BME280;45056;47.602;9.886;2023-03-14T10:15:58;91381.47;;;12.02;50.59
59289;BME280;45056;47.602;9.886;2023-03-14T10:18:29;91394.53;;;11.98;50.39
59289;BME280;45056;47.602;9.886;2023-03-14T10:21:05;91391.06;;;11.97;50.92
59289;BME280;45056;47.602;9.886;2023-03-14T10:23:45;91405.69;;;11.94;50.92
59289;BME280;45056;47.602;9.886;2023-03-14T10:26:16;91407.88;;;11.90;50.99
59289;BME280;45056;47.602;9.886;2023-03-14T10:28:47;91404.66;;;11.86;51.45
59289;BME280;45056;47.602;9.886;2023-03-14T10:31:18;91405.13;;;11.84;51.32
59289;BME280;45056;47.602;9.886;2023-03-14T10:34:01;91409.59;;;11.88;51.40
59289;BME280;45056;47.602;9.886;2023-03-14T10:36:32;91409.13;;;11.89;51.23
59289;BME280;45056;47.602;9.886;2023-03-14T10:39:23;91398.31;;;12.01;51.47
59289;BME280;45056;47.602;9.886;2023-03-14T10:42:14;91399.88;;;12.19;51.63
59289;BME280;45056;47.602;9.886;2023-03-14T10:44:54;91401.16;;;12.35;51.18
59289;BME280;45056;47.602;9.886;2023-03-14T10:47:26;91411.59;;;12.42;50.87
59289;BME280;45056;47.602;9.886;2023-03-14T10:49:56;91411.84;;;12.44;50.90
59289;BME280;45056;47.602;9.886;2023-03-14T10:52:26;91405.16;;;12.45;50.79
59289;BME280;45056;47.602;9.886;2023-03-14T10:55:00;91415.31;;;12.33;50.23
59289;BME280;45056;47.602;9.886;2023-03-14T10:57:29;91418.97;;;12.24;50.85
59289;BME280;45056;47.602;9.886;2023-03-14T10:59:57;91431.09;;;12.18;50.91
59289;BME280;45056;47.602;9.886;2023-03-14T11:02:40;91441.44;;;12.08;51.59
59289;BME280;45056;47.602;9.886;2023-03-14T11:05:29;91434.16;;;11.93;52.82
59289;BME280;45056;47.602;9.886;2023-03-14T11:08:11;91428.38;;;11.80;53.62
59289;BME280;45056;47.602;9.886;2023-03-14T11:10:53;91436.50;;;11.68;54.10
59289;BME280;45056;47.602;9.886;2023-03-14T11:13:30;91430.00;;;11.60;54.47
59289;BME280;45056;47.602;9.886;2023-03-14T11:16:14;91430.72;;;11.55;54.45
59289;BME280;45056;47.602;9.886;2023-03-14T11:19:03;91430.66;;;11.49;54.20
59289;BME280;45056;47.602;9.886;2023-03-14T11:21:55;91437.34;;;11.48;54.59
59289;BME280;45056;47.602;9.886;2023-03-14T11:24:44;91438.78;;;11.44;55.15
59289;BME280;45056;47.602;9.886;2023-03-14T11:27:32;91436.75;;;11.38;55.39
59289;BME280;45056;47.602;9.886;2023-03-14T11:30:18;91437.47;;;11.33;55.24
59289;BME280;45056;47.602;9.886;2023-03-14T11:32:56;91448.56;;;11.30;55.12
59289;BME280;45056;47.602;9.886;2023-03-14T11:35:37;91456.22;;;11.25;54.33
59289;BME280;45056;47.602;9.886;2023-03-14T11:38:28;91466.06;;;11.17;54.77
59289;BME280;45056;47.602;9.886;2023-03-14T11:41:00;91467.66;;;11.03;55.33
59289;BME280;45056;47.602;9.886;2023-03-14T11:43:33;91472.44;;;10.88;55.70
59289;BME280;45056;47.602;9.886;2023-03-14T11:46:13;91475.47;;;10.69;56.64
59289;BME280;45056;47.602;9.886;2023-03-14T11:48:58;91474.25;;;10.49;57.87
59289;BME280;45056;47.602;9.886;2023-03-14T11:51:35;91477.69;;;10.29;58.65
59289;BME280;45056;47.602;9.886;2023-03-14T11:54:14;91463.13;;;10.11;59.58
59289;BME280;45056;47.602;9.886;2023-03-14T11:56:51;91483.31;;;10.05;61.02
59289;BME280;45056;47.602;9.886;2023-03-14T11:59:28;91469.47;;;10.03;60.93
59289;BME280;45056;47.602;9.886;2023-03-14T12:02:17;91475.44;;;10.07;61.16
59289;BME280;45056;47.602;9.886;2023-03-14T12:05:14;91486.59;;;10.09;60.84
59289;BME280;45056;47.602;9.886;2023-03-14T12:11:20;91502.34;;;10.05;60.89
59289;BME280;45056;47.602;9.886;2023-03-14T12:13:53;91509.94;;;10.01;60.91
59289;BME280;45056;47.602;9.886;2023-03-14T12:16:33;91516.25;;;9.92;60.92
59289;BME280;45056;47.602;9.886;2023-03-14T12:19:27;91518.03;;;9.80;61.65
59289;BME280;45056;47.602;9.886;2023-03-14T12:24:55;91531.16;;;9.51;62.65
59289;BME280;45056;47.602;9.886;2023-03-14T12:30:34;91530.16;;;9.34;63.55
59289;BME280;45056;47.602;9.886;2023-03-14T12:36:51;91538.19;;;9.28;64.41
59289;BME280;45056;47.602;9.886;2023-03-14T12:40:01;91549.25;;;9.24;64.79
59289;BME280;45056;47.602;9.886;2023-03-14T12:42:51;91557.56;;;9.21;65.63
59289;BME280;45056;47.602;9.886;2023-03-14T12:45:28;91556.44;;;9.13;66.14
59289;BME280;45056;47.602;9.886;2023-03-14T12:48:09;91556.81;;;9.05;66.48
59289;BME280;45056;47.602;9.886;2023-03-14T12:50:54;91570.72;;;8.98;66.64
59289;BME280;45056;47.602;9.886;2023-03-14T12:53:53;91584.81;;;8.87;66.37
59289;BME280;45056;47.602;9.886;2023-03-14T12:56:46;91595.16;;;8.74;64.93
59289;BME280;45056;47.602;9.886;2023-03-14T12:59:30;91605.38;;;8.55;65.75
59289;BME280;45056;47.602;9.886;2023-03-14T13:02:09;91610.41;;;8.37;66.28
59289;BME280;45056;47.602;9.886;2023-03-14T13:05:00;91609.75;;;8.18;66.12
59289;BME280;45056;47.602;9.886;2023-03-14T13:08:01;91614.72;;;8.11;66.54
59289;BME280;45056;47.602;9.886;2023-03-14T13:10:42;91618.06;;;8.05;66.87
59289;BME280;45056;47.602;9.886;2023-03-14T13:13:20;91614.31;;;8.03;66.93
59289;BME280;45056;47.602;9.886;2023-03-14T13:15:54;91634.47;;;8.02;67.20
59289;BME280;45056;47.602;9.886;2023-03-14T13:18:33;91632.38;;;7.97;66.99
59289;BME280;45056;47.602;9.886;2023-03-14T13:21:07;91645.63;;;7.94;67.43
59289;BME280;45056;47.602;9.886;2023-03-14T13:23:54;91656.63;;;7.91;66.92
59289;BME280;45056;47.602;9.886;2023-03-14T13:26:32;91657.53;;;7.88;66.95
59289;BME280;45056;47.602;9.886;2023-03-14T13:29:09;91669.88;;;7.89;66.87
59289;BME280;45056;47.602;9.886;2023-03-14T13:31:45;91679.19;;;7.88;66.89
59289;BME280;45056;47.602;9.886;2023-03-14T13:34:15;91713.66;;;7.87;67.04
59289;BME280;45056;47.602;9.886;2023-03-14T13:36:44;91708.09;;;7.91;66.89
59289;BME280;45056;47.602;9.886;2023-03-14T13:39:19;91698.31;;;7.93;65.97
59289;BME280;45056;47.602;9.886;2023-03-14T13:41:52;91701.47;;;8.01;65.56
59289;BME280;45056;47.602;9.886;2023-03-14T13:44:27;91706.69;;;8.14;65.63
59289;BME280;45056;47.602;9.886;2023-03-14T13:47:00;91698.03;;;8.34;63.76